sensor_id;sensor_type;location;lat;lon;timestamp;P1;durP1;ratioP1;P2;durP2;ratioP2
54871;SDS011;43914;57.680;11.982;2022-09-29T00:01:54;6.95;;;2.10;;
54871;SDS011;43914;57.680;11.982;2022-09-29T00:04:20;6.33;;;2.10;;
54871;SDS011;43914;57.680;11.982;2022-09-29T00:06:46;5.62;;;1.98;;
54871;SDS011;43914;57.680;11.982;2022-09-29T00:09:12;6.77;;;1.87;;
54871;SDS011;43914;57.680;11.982;2022-09-29T00:11:38;5.97;;;1.70;;
54871;SDS011;43914;57.680;11.982;2022-09-29T00:14:06;7.00;;;1.85;;
54871;SDS011;43914;57.680;11.982;2022-09-29T00:16:31;5.67;;;1.92;;
54871;SDS011;43914;57.680;11.982;2022-09-29T00:18:57;6.90;;;2.00;;
54871;SDS011;43914;57.680;11.982;2022-09-29T00:21:23;5.97;;;1.95;;
54871;SDS011;43914;57.680;11.982;2022-09-29T00:23:50;5.17;;;1.80;;
54871;SDS011;43914;57.680;11.982;2022-09-29T00:26:21;5.87;;;2.10;;
54871;SDS011;43914;57.680;11.982;2022-09-29T00:28:53;4.72;;;1.47;;
54871;SDS011;43914;57.680;11.982;2022-09-29T00:31:22;6.42;;;1.90;;
54871;SDS011;43914;57.680;11.982;2022-09-29T00:33:51;6.87;;;1.98;;
54871;SDS011;43914;57.680;11.982;2022-09-29T00:36:18;6.25;;;1.60;;
54871;SDS011;43914;57.680;11.982;2022-09-29T00:38:46;5.25;;;1.90;;
54871;SDS011;43914;57.680;11.982;2022-09-29T00:41:17;6.17;;;2.08;;
54871;SDS011;43914;57.680;11.982;2022-09-29T00:46:30;6.42;;;2.20;;
54871;SDS011;43914;57.680;11.982;2022-09-29T00:54:57;5.97;;;2.10;;
54871;SDS011;43914;57.680;11.982;2022-09-29T00:57:34;5.60;;;1.80;;
54871;SDS011;43914;57.680;11.982;2022-09-29T01:00:08;6.08;;;2.00;;
54871;SDS011;43914;57.680;11.982;2022-09-29T01:02:42;5.15;;;2.00;;
54871;SDS011;43914;57.680;11.982;2022-09-29T01:05:22;6.70;;;1.98;;
54871;SDS011;43914;57.680;11.982;2022-09-29T01:07:58;9.38;;;2.10;;
54871;SDS011;43914;57.680;11.982;2022-09-29T01:10:35;6.20;;;2.02;;
54871;SDS011;43914;57.680;11.982;2022-09-29T01:13:03;5.62;;;1.90;;
54871;SDS011;43914;57.680;11.982;2022-09-29T01:15:30;6.62;;;2.05;;
54871;SDS011;43914;57.680;11.982;2022-09-29T01:17:57;6.85;;;2.00;;
54871;SDS011;43914;57.680;11.982;2022-09-29T01:20:23;6.97;;;1.75;;
54871;SDS011;43914;57.680;11.982;2022-09-29T01:38:06;5.62;;;2.17;;
54871;SDS011;43914;57.680;11.982;2022-09-29T01:43:35;6.75;;;2.42;;
54871;SDS011;43914;57.680;11.982;2022-09-29T01:46:08;7.33;;;2.27;;
54871;SDS011;43914;57.680;11.982;2022-09-29T01:48:53;6.87;;;2.70;;
54871;SDS011;43914;57.680;11.982;2022-09-29T01:51:29;6.30;;;2.40;;
54871;SDS011;43914;57.680;11.982;2022-09-29T01:54:35;7.22;;;2.30;;
54871;SDS011;43914;57.680;11.982;2022-09-29T01:57:18;6.67;;;2.42;;
54871;SDS011;43914;57.680;11.982;2022-09-29T02:00:07;5.80;;;2.50;;
54871;SDS011;43914;57.680;11.982;2022-09-29T02:05:21;6.42;;;2.25;;
54871;SDS011;43914;57.680;11.982;2022-09-29T02:08:10;5.80;;;2.30;;
54871;SDS011;43914;57.680;11.982;2022-09-29T02:10:49;7.85;;;2.30;;
54871;SDS011;43914;57.680;11.982;2022-09-29T02:13:20;6.37;;;2.55;;
54871;SDS011;43914;57.680;11.982;2022-09-29T02:15:49;8.48;;;2.33;;
54871;SDS011;43914;57.680;11.982;2022-09-29T02:18:21;7.87;;;2.52;;
54871;SDS011;43914;57.680;11.982;2022-09-29T02:20:50;5.70;;;2.08;;
54871;SDS011;43914;57.680;11.982;2022-09-29T02:23:16;6.63;;;2.53;;
54871;SDS011;43914;57.680;11.982;2022-09-29T02:25:43;7.20;;;2.45;;
54871;SDS011;43914;57.680;11.982;2022-09-29T02:28:11;6.50;;;2.30;;
54871;SDS011;43914;57.680;11.982;2022-09-29T02:30:38;6.78;;;2.55;;
54871;SDS011;43914;57.680;11.982;2022-09-29T02:33:04;6.78;;;2.33;;
54871;SDS011;43914;57.680;11.982;2022-09-29T02:35:37;6.97;;;2.67;;
54871;SDS011;43914;57.680;11.982;2022-09-29T02:38:23;5.80;;;2.25;;
54871;SDS011;43914;57.680;11.982;2022-09-29T02:40:58;6.97;;;2.30;;
54871;SDS011;43914;57.680;11.982;2022-09-29T02:49:18;6.75;;;2.50;;
54871;SDS011;43914;57.680;11.982;2022-09-29T02:51:52;6.10;;;2.10;;
54871;SDS011;43914;57.680;11.982;2022-09-29T03:00:24;7.05;;;2.08;;
54871;SDS011;43914;57.680;11.982;2022-09-29T03:02:52;6.65;;;2.35;;
54871;SDS011;43914;57.680;11.982;2022-09-29T03:05:18;7.63;;;2.50;;
54871;SDS011;43914;57.680;11.982;2022-09-29T03:07:46;7.28;;;2.47;;
54871;SDS011;43914;57.680;11.982;2022-09-29T03:10:14;6.30;;;2.35;;
54871;SDS011;43914;57.680;11.982;2022-09-29T03:12:41;7.10;;;2.42;;
54871;SDS011;43914;57.680;11.982;2022-09-29T03:15:08;7.05;;;2.50;;
54871;SDS011;43914;57.680;11.982;2022-09-29T03:17:37;5.90;;;2.37;;
54871;SDS011;43914;57.680;11.982;2022-09-29T03:20:04;6.78;;;2.10;;
54871;SDS011;43914;57.680;11.982;2022-09-29T03:22:31;6.58;;;2.22;;
54871;SDS011;43914;57.680;11.982;2022-09-29T03:24:57;6.20;;;2.33;;
54871;SDS011;43914;57.680;11.982;2022-09-29T03:27:22;6.00;;;2.20;;
54871;SDS011;43914;57.680;11.982;2022-09-29T03:29:49;6.65;;;2.58;;
54871;SDS011;43914;57.680;11.982;2022-09-29T03:32:15;5.67;;;2.30;;
54871;SDS011;43914;57.680;11.982;2022-09-29T03:34:42;10.40;;;2.30;;
54871;SDS011;43914;57.680;11.982;2022-09-29T03:37:08;5.80;;;2.10;;
54871;SDS011;43914;57.680;11.982;2022-09-29T03:39:34;7.30;;;2.60;;
54871;SDS011;43914;57.680;11.982;2022-09-29T03:42:00;7.20;;;2.05;;
54871;SDS011;43914;57.680;11.982;2022-09-29T03:44:26;5.77;;;2.30;;
54871;SDS011;43914;57.680;11.982;2022-09-29T03:46:52;5.47;;;1.93;;
54871;SDS011;43914;57.680;11.982;2022-09-29T03:49:18;5.70;;;2.10;;
54871;SDS011;43914;57.680;11.982;2022-09-29T03:51:44;6.70;;;2.30;;
54871;SDS011;43914;57.680;11.982;2022-09-29T03:54:10;8.00;;;1.98;;
54871;SDS011;43914;57.680;11.982;2022-09-29T03:56:37;5.37;;;1.92;;
54871;SDS011;43914;57.680;11.982;2022-09-29T03:59:03;6.50;;;2.00;;
54871;SDS011;43914;57.680;11.982;2022-09-29T04:01:32;7.05;;;2.15;;
54871;SDS011;43914;57.680;11.982;2022-09-29T04:03:59;6.03;;;1.90;;
54871;SDS011;43914;57.680;11.982;2022-09-29T04:06:25;5.87;;;2.00;;
54871;SDS011;43914;57.680;11.982;2022-09-29T04:08:51;6.03;;;2.00;;
54871;SDS011;43914;57.680;11.982;2022-09-29T04:11:17;7.23;;;2.50;;
54871;SDS011;43914;57.680;11.982;2022-09-29T04:13:43;7.17;;;2.27;;
54871;SDS011;43914;57.680;11.982;2022-09-29T04:16:09;8.38;;;2.40;;
54871;SDS011;43914;57.680;11.982;2022-09-29T04:18:35;7.00;;;2.42;;
54871;SDS011;43914;57.680;11.982;2022-09-29T04:21:05;9.18;;;2.75;;
54871;SDS011;43914;57.680;11.982;2022-09-29T04:23:32;9.83;;;2.45;;
54871;SDS011;43914;57.680;11.982;2022-09-29T04:25:59;5.40;;;1.90;;
54871;SDS011;43914;57.680;11.982;2022-09-29T04:28:29;7.87;;;2.40;;
54871;SDS011;43914;57.680;11.982;2022-09-29T04:30:57;6.22;;;2.20;;
54871;SDS011;43914;57.680;11.982;2022-09-29T04:33:23;7.62;;;2.30;;
54871;SDS011;43914;57.680;11.982;2022-09-29T04:35:49;7.30;;;2.52;;
54871;SDS011;43914;57.680;11.982;2022-09-29T04:38:15;6.40;;;2.30;;
54871;SDS011;43914;57.680;11.982;2022-09-29T04:40:42;6.45;;;2.42;;
54871;SDS011;43914;57.680;11.982;2022-09-29T04:43:07;6.10;;;2.13;;
54871;SDS011;43914;57.680;11.982;2022-09-29T04:45:34;6.95;;;2.42;;
54871;SDS011;43914;57.680;11.982;2022-09-29T04:48:00;6.00;;;2.27;;
54871;SDS011;43914;57.680;11.982;2022-09-29T04:50:26;8.23;;;2.55;;
54871;SDS011;43914;57.680;11.982;2022-09-29T04:52:53;6.55;;;2.35;;
54871;SDS011;43914;57.680;11.982;2022-09-29T04:55:19;6.60;;;2.60;;
54871;SDS011;43914;57.680;11.982;2022-09-29T04:57:45;9.83;;;2.50;;
54871;SDS011;43914;57.680;11.982;2022-09-29T05:00:13;6.78;;;2.25;;
54871;SDS011;43914;57.680;11.982;2022-09-29T05:02:39;6.00;;;2.20;;
54871;SDS011;43914;57.680;11.982;2022-09-29T05:05:06;7.78;;;2.90;;
54871;SDS011;43914;57.680;11.982;2022-09-29T05:07:35;7.25;;;2.72;;
54871;SDS011;43914;57.680;11.982;2022-09-29T05:10:03;6.90;;;2.25;;
54871;SDS011;43914;57.680;11.982;2022-09-29T05:12:29;6.33;;;2.02;;
54871;SDS011;43914;57.680;11.982;2022-09-29T05:14:55;8.53;;;2.47;;
54871;SDS011;43914;57.680;11.982;2022-09-29T05:17:22;10.48;;;2.58;;
54871;SDS011;43914;57.680;11.982;2022-09-29T05:19:48;8.70;;;2.70;;
54871;SDS011;43914;57.680;11.982;2022-09-29T05:22:14;6.25;;;2.10;;
54871;SDS011;43914;57.680;11.982;2022-09-29T05:24:41;8.00;;;2.50;;
54871;SDS011;43914;57.680;11.982;2022-09-29T05:27:07;9.13;;;2.60;;
54871;SDS011;43914;57.680;11.982;2022-09-29T05:29:33;10.28;;;2.70;;
54871;SDS011;43914;57.680;11.982;2022-09-29T05:32:00;8.28;;;2.60;;
54871;SDS011;43914;57.680;11.982;2022-09-29T05:34:26;8.45;;;2.92;;
54871;SDS011;43914;57.680;11.982;2022-09-29T05:36:52;7.12;;;3.25;;
54871;SDS011;43914;57.680;11.982;2022-09-29T05:39:18;8.53;;;2.70;;
54871;SDS011;43914;57.680;11.982;2022-09-29T05:41:45;7.72;;;2.83;;
54871;SDS011;43914;57.680;11.982;2022-09-29T05:44:13;7.92;;;2.80;;
54871;SDS011;43914;57.680;11.982;2022-09-29T05:46:41;6.08;;;2.30;;
54871;SDS011;43914;57.680;11.982;2022-09-29T05:49:07;6.80;;;2.70;;
54871;SDS011;43914;57.680;11.982;2022-09-29T05:51:34;9.08;;;2.90;;
54871;SDS011;43914;57.680;11.982;2022-09-29T05:54:00;7.30;;;2.77;;
54871;SDS011;43914;57.680;11.982;2022-09-29T05:56:27;6.85;;;2.50;;
54871;SDS011;43914;57.680;11.982;2022-09-29T05:58:53;7.25;;;2.80;;
54871;SDS011;43914;57.680;11.982;2022-09-29T06:01:20;7.60;;;2.67;;
54871;SDS011;43914;57.680;11.982;2022-09-29T06:03:51;6.33;;;2.55;;
54871;SDS011;43914;57.680;11.982;2022-09-29T06:06:20;6.28;;;2.17;;
54871;SDS011;43914;57.680;11.982;2022-09-29T06:08:49;6.80;;;2.12;;
54871;SDS011;43914;57.680;11.982;2022-09-29T06:11:17;7.67;;;2.70;;
54871;SDS011;43914;57.680;11.982;2022-09-29T06:13:50;8.73;;;2.52;;
54871;SDS011;43914;57.680;11.982;2022-09-29T06:16:18;7.17;;;2.60;;
54871;SDS011;43914;57.680;11.982;2022-09-29T06:18:50;7.80;;;2.72;;
54871;SDS011;43914;57.680;11.982;2022-09-29T06:21:17;9.90;;;2.85;;
54871;SDS011;43914;57.680;11.982;2022-09-29T06:23:45;8.00;;;2.75;;
54871;SDS011;43914;57.680;11.982;2022-09-29T06:26:13;8.33;;;2.80;;
54871;SDS011;43914;57.680;11.982;2022-09-29T06:28:41;6.45;;;2.30;;
54871;SDS011;43914;57.680;11.982;2022-09-29T06:31:10;6.70;;;2.75;;
54871;SDS011;43914;57.680;11.982;2022-09-29T06:33:39;8.83;;;2.83;;
54871;SDS011;43914;57.680;11.982;2022-09-29T06:36:27;6.55;;;2.70;;
54871;SDS011;43914;57.680;11.982;2022-09-29T06:39:09;5.97;;;2.15;;
54871;SDS011;43914;57.680;11.982;2022-09-29T06:41:38;8.05;;;2.62;;
54871;SDS011;43914;57.680;11.982;2022-09-29T06:44:04;7.10;;;2.75;;
54871;SDS011;43914;57.680;11.982;2022-09-29T06:46:30;6.90;;;2.70;;
54871;SDS011;43914;57.680;11.982;2022-09-29T06:48:57;6.08;;;2.30;;
54871;SDS011;43914;57.680;11.982;2022-09-29T06:51:23;6.10;;;2.30;;
54871;SDS011;43914;57.680;11.982;2022-09-29T06:53:50;7.12;;;2.65;;
54871;SDS011;43914;57.680;11.982;2022-09-29T06:56:17;7.42;;;2.72;;
54871;SDS011;43914;57.680;11.982;2022-09-29T06:58:44;8.68;;;2.67;;
54871;SDS011;43914;57.680;11.982;2022-09-29T07:01:10;7.55;;;2.65;;
54871;SDS011;43914;57.680;11.982;2022-09-29T07:03:37;6.58;;;2.25;;
54871;SDS011;43914;57.680;11.982;2022-09-29T07:06:04;7.25;;;2.77;;
54871;SDS011;43914;57.680;11.982;2022-09-29T07:08:32;6.80;;;2.58;;
54871;SDS011;43914;57.680;11.982;2022-09-29T07:11:01;7.80;;;2.15;;
54871;SDS011;43914;57.680;11.982;2022-09-29T07:13:28;7.20;;;2.90;;
54871;SDS011;43914;57.680;11.982;2022-09-29T07:15:54;6.62;;;2.60;;
54871;SDS011;43914;57.680;11.982;2022-09-29T07:18:21;5.85;;;2.40;;
54871;SDS011;43914;57.680;11.982;2022-09-29T07:20:48;6.20;;;2.08;;
54871;SDS011;43914;57.680;11.982;2022-09-29T07:23:14;7.33;;;2.37;;
54871;SDS011;43914;57.680;11.982;2022-09-29T07:25:40;6.75;;;2.20;;
54871;SDS011;43914;57.680;11.982;2022-09-29T07:28:06;7.47;;;2.30;;
54871;SDS011;43914;57.680;11.982;2022-09-29T07:30:33;6.42;;;2.15;;
54871;SDS011;43914;57.680;11.982;2022-09-29T07:33:01;7.20;;;2.40;;
54871;SDS011;43914;57.680;11.982;2022-09-29T07:35:27;7.58;;;2.50;;
54871;SDS011;43914;57.680;11.982;2022-09-29T07:37:53;6.55;;;2.22;;
54871;SDS011;43914;57.680;11.982;2022-09-29T07:40:20;7.72;;;2.52;;
54871;SDS011;43914;57.680;11.982;2022-09-29T07:42:47;5.50;;;2.10;;
54871;SDS011;43914;57.680;11.982;2022-09-29T07:45:15;6.87;;;2.33;;
54871;SDS011;43914;57.680;11.982;2022-09-29T07:47:42;8.05;;;2.15;;
54871;SDS011;43914;57.680;11.982;2022-09-29T07:50:08;7.70;;;2.62;;
54871;SDS011;43914;57.680;11.982;2022-09-29T07:52:35;7.72;;;2.00;;
54871;SDS011;43914;57.680;11.982;2022-09-29T07:55:01;9.10;;;2.20;;
54871;SDS011;43914;57.680;11.982;2022-09-29T07:57:29;8.53;;;2.27;;
54871;SDS011;43914;57.680;11.982;2022-09-29T07:59:55;7.17;;;2.40;;
54871;SDS011;43914;57.680;11.982;2022-09-29T08:02:23;6.67;;;2.35;;
54871;SDS011;43914;57.680;11.982;2022-09-29T08:04:50;6.17;;;2.10;;
54871;SDS011;43914;57.680;11.982;2022-09-29T08:07:16;6.42;;;2.22;;
54871;SDS011;43914;57.680;11.982;2022-09-29T08:09:42;6.45;;;2.33;;
54871;SDS011;43914;57.680;11.982;2022-09-29T08:12:08;7.35;;;2.20;;
54871;SDS011;43914;57.680;11.982;2022-09-29T08:14:36;5.65;;;2.05;;
54871;SDS011;43914;57.680;11.982;2022-09-29T08:17:03;8.55;;;2.37;;
54871;SDS011;43914;57.680;11.982;2022-09-29T08:19:29;5.90;;;1.80;;
54871;SDS011;43914;57.680;11.982;2022-09-29T08:21:55;6.20;;;2.00;;
54871;SDS011;43914;57.680;11.982;2022-09-29T08:24:22;8.68;;;2.05;;
54871;SDS011;43914;57.680;11.982;2022-09-29T08:26:49;6.00;;;2.33;;
54871;SDS011;43914;57.680;11.982;2022-09-29T08:29:15;6.30;;;2.20;;
54871;SDS011;43914;57.680;11.982;2022-09-29T08:31:41;9.03;;;2.40;;
54871;SDS011;43914;57.680;11.982;2022-09-29T08:34:08;7.55;;;2.02;;
54871;SDS011;43914;57.680;11.982;2022-09-29T08:36:35;6.50;;;2.30;;
54871;SDS011;43914;57.680;11.982;2022-09-29T08:39:01;7.78;;;2.10;;
54871;SDS011;43914;57.680;11.982;2022-09-29T08:47:11;6.85;;;2.40;;
54871;SDS011;43914;57.680;11.982;2022-09-29T08:52:43;7.50;;;2.10;;
54871;SDS011;43914;57.680;11.982;2022-09-29T08:57:58;6.25;;;2.00;;
54871;SDS011;43914;57.680;11.982;2022-09-29T09:00:24;5.53;;;1.98;;
54871;SDS011;43914;57.680;11.982;2022-09-29T09:08:50;5.97;;;1.80;;
54871;SDS011;43914;57.680;11.982;2022-09-29T09:14:20;5.47;;;1.70;;
54871;SDS011;43914;57.680;11.982;2022-09-29T09:23:11;23.27;;;2.72;;
54871;SDS011;43914;57.680;11.982;2022-09-29T09:25:54;6.35;;;1.70;;
54871;SDS011;43914;57.680;11.982;2022-09-29T09:28:33;5.12;;;1.92;;
54871;SDS011;43914;57.680;11.982;2022-09-29T09:31:22;15.58;;;2.65;;
54871;SDS011;43914;57.680;11.982;2022-09-29T09:34:00;5.80;;;1.87;;
54871;SDS011;43914;57.680;11.982;2022-09-29T09:36:36;4.95;;;1.80;;
54871;SDS011;43914;57.680;11.982;2022-09-29T09:39:17;7.65;;;2.10;;
54871;SDS011;43914;57.680;11.982;2022-09-29T09:41:50;7.45;;;2.08;;
54871;SDS011;43914;57.680;11.982;2022-09-29T09:47:04;5.35;;;1.60;;
54871;SDS011;43914;57.680;11.982;2022-09-29T09:49:36;19.57;;;2.55;;
54871;SDS011;43914;57.680;11.982;2022-09-29T09:52:12;8.68;;;2.10;;
54871;SDS011;43914;57.680;11.982;2022-09-29T09:55:00;6.50;;;1.90;;
54871;SDS011;43914;57.680;11.982;2022-09-29T10:00:54;9.28;;;1.80;;
54871;SDS011;43914;57.680;11.982;2022-09-29T10:03:23;6.08;;;1.90;;
54871;SDS011;43914;57.680;11.982;2022-09-29T10:05:49;7.20;;;2.00;;
54871;SDS011;43914;57.680;11.982;2022-09-29T10:08:25;5.90;;;1.90;;
54871;SDS011;43914;57.680;11.982;2022-09-29T10:10:52;6.35;;;1.90;;
54871;SDS011;43914;57.680;11.982;2022-09-29T10:13:19;5.53;;;1.87;;
54871;SDS011;43914;57.680;11.982;2022-09-29T10:15:55;6.05;;;1.70;;
54871;SDS011;43914;57.680;11.982;2022-09-29T10:18:41;6.03;;;1.80;;
54871;SDS011;43914;57.680;11.982;2022-09-29T10:24:20;5.70;;;1.80;;
54871;SDS011;43914;57.680;11.982;2022-09-29T10:26:53;4.83;;;1.60;;
54871;SDS011;43914;57.680;11.982;2022-09-29T10:32:00;5.60;;;1.80;;
54871;SDS011;43914;57.680;11.982;2022-09-29T10:34:36;4.47;;;1.67;;
54871;SDS011;43914;57.680;11.982;2022-09-29T10:37:19;5.87;;;2.00;;
54871;SDS011;43914;57.680;11.982;2022-09-29T10:40:12;7.17;;;1.70;;
54871;SDS011;43914;57.680;11.982;2022-09-29T10:42:45;4.90;;;1.80;;
54871;SDS011;43914;57.680;11.982;2022-09-29T10:51:21;6.70;;;1.70;;
54871;SDS011;43914;57.680;11.982;2022-09-29T10:56:15;6.78;;;1.72;;
54871;SDS011;43914;57.680;11.982;2022-09-29T10:58:53;5.15;;;1.80;;
54871;SDS011;43914;57.680;11.982;2022-09-29T11:01:26;5.22;;;1.57;;
54871;SDS011;43914;57.680;11.982;2022-09-29T11:03:59;5.72;;;1.80;;
54871;SDS011;43914;57.680;11.982;2022-09-29T11:06:32;6.87;;;1.80;;
54871;SDS011;43914;57.680;11.982;2022-09-29T11:09:21;6.65;;;1.70;;
54871;SDS011;43914;57.680;11.982;2022-09-29T11:14:38;6.53;;;1.80;;
54871;SDS011;43914;57.680;11.982;2022-09-29T11:17:19;5.67;;;1.87;;
54871;SDS011;43914;57.680;11.982;2022-09-29T11:19:52;5.55;;;1.80;;
54871;SDS011;43914;57.680;11.982;2022-09-29T11:22:29;4.92;;;1.50;;
54871;SDS011;43914;57.680;11.982;2022-09-29T11:25:13;5.53;;;1.60;;
54871;SDS011;43914;57.680;11.982;2022-09-29T11:31:17;6.03;;;1.77;;
54871;SDS011;43914;57.680;11.982;2022-09-29T11:34:07;6.70;;;1.43;;
54871;SDS011;43914;57.680;11.982;2022-09-29T11:49:17;5.15;;;1.70;;
54871;SDS011;43914;57.680;11.982;2022-09-29T12:00:11;5.20;;;1.75;;
54871;SDS011;43914;57.680;11.982;2022-09-29T12:08:39;6.12;;;1.70;;
54871;SDS011;43914;57.680;11.982;2022-09-29T12:11:10;6.00;;;1.70;;
54871;SDS011;43914;57.680;11.982;2022-09-29T12:13:48;4.65;;;1.45;;
54871;SDS011;43914;57.680;11.982;2022-09-29T12:16:25;5.40;;;1.80;;
54871;SDS011;43914;57.680;11.982;2022-09-29T12:19:15;5.53;;;1.50;;
54871;SDS011;43914;57.680;11.982;2022-09-29T12:21:47;4.58;;;1.40;;
54871;SDS011;43914;57.680;11.982;2022-09-29T12:24:35;5.47;;;1.60;;
54871;SDS011;43914;57.680;11.982;2022-09-29T12:26:59;3.98;;;1.32;;
54871;SDS011;43914;57.680;11.982;2022-09-29T12:29:37;5.25;;;1.60;;
54871;SDS011;43914;57.680;11.982;2022-09-29T12:32:10;5.08;;;1.82;;
54871;SDS011;43914;57.680;11.982;2022-09-29T12:34:46;5.47;;;1.70;;
54871;SDS011;43914;57.680;11.982;2022-09-29T12:37:22;5.75;;;1.75;;
54871;SDS011;43914;57.680;11.982;2022-09-29T12:40:15;5.22;;;1.60;;
54871;SDS011;43914;57.680;11.982;2022-09-29T12:45:34;6.22;;;1.90;;
54871;SDS011;43914;57.680;11.982;2022-09-29T12:51:21;5.67;;;1.50;;
54871;SDS011;43914;57.680;11.982;2022-09-29T12:54:13;5.45;;;1.50;;
54871;SDS011;43914;57.680;11.982;2022-09-29T12:57:08;5.15;;;1.50;;
54871;SDS011;43914;57.680;11.982;2022-09-29T12:59:54;5.35;;;1.50;;
54871;SDS011;43914;57.680;11.982;2022-09-29T13:19:46;5.60;;;1.65;;
54871;SDS011;43914;57.680;11.982;2022-09-29T13:22:49;6.90;;;1.67;;
54871;SDS011;43914;57.680;11.982;2022-09-29T13:25:21;5.53;;;1.40;;
54871;SDS011;43914;57.680;11.982;2022-09-29T13:27:55;5.75;;;1.60;;
54871;SDS011;43914;57.680;11.982;2022-09-29T13:30:32;4.33;;;1.57;;
54871;SDS011;43914;57.680;11.982;2022-09-29T13:33:07;4.55;;;1.47;;
54871;SDS011;43914;57.680;11.982;2022-09-29T13:35:43;5.53;;;1.52;;
54871;SDS011;43914;57.680;11.982;2022-09-29T13:38:34;5.83;;;1.50;;
54871;SDS011;43914;57.680;11.982;2022-09-29T13:41:33;4.12;;;1.50;;
54871;SDS011;43914;57.680;11.982;2022-09-29T13:46:33;5.00;;;1.40;;
54871;SDS011;43914;57.680;11.982;2022-09-29T13:54:42;5.08;;;1.40;;
54871;SDS011;43914;57.680;11.982;2022-09-29T14:05:34;6.22;;;1.65;;
54871;SDS011;43914;57.680;11.982;2022-09-29T14:13:26;4.10;;;1.40;;
54871;SDS011;43914;57.680;11.982;2022-09-29T14:21:55;3.87;;;1.40;;
54871;SDS011;43914;57.680;11.982;2022-09-29T14:29:59;6.85;;;1.70;;
54871;SDS011;43914;57.680;11.982;2022-09-29T14:32:33;5.55;;;1.60;;
54871;SDS011;43914;57.680;11.982;2022-09-29T14:35:13;6.30;;;1.40;;
54871;SDS011;43914;57.680;11.982;2022-09-29T14:40:25;4.28;;;1.40;;
54871;SDS011;43914;57.680;11.982;2022-09-29T14:43:02;6.65;;;1.80;;
54871;SDS011;43914;57.680;11.982;2022-09-29T14:45:34;4.80;;;1.45;;
54871;SDS011;43914;57.680;11.982;2022-09-29T14:48:25;5.08;;;1.60;;
54871;SDS011;43914;57.680;11.982;2022-09-29T14:51:17;5.87;;;1.32;;
54871;SDS011;43914;57.680;11.982;2022-09-29T14:54:10;6.08;;;1.47;;
54871;SDS011;43914;57.680;11.982;2022-09-29T14:59:25;4.67;;;1.40;;
54871;SDS011;43914;57.680;11.982;2022-09-29T15:02:24;5.20;;;1.50;;
54871;SDS011;43914;57.680;11.982;2022-09-29T15:04:54;4.75;;;1.50;;
54871;SDS011;43914;57.680;11.982;2022-09-29T15:07:18;4.15;;;1.20;;
54871;SDS011;43914;57.680;11.982;2022-09-29T15:09:58;5.08;;;1.60;;
54871;SDS011;43914;57.680;11.982;2022-09-29T15:12:23;4.42;;;1.45;;
54871;SDS011;43914;57.680;11.982;2022-09-29T15:26:00;4.92;;;1.50;;
54871;SDS011;43914;57.680;11.982;2022-09-29T15:28:30;5.12;;;1.62;;
54871;SDS011;43914;57.680;11.982;2022-09-29T15:31:10;5.33;;;1.50;;
54871;SDS011;43914;57.680;11.982;2022-09-29T15:33:43;4.65;;;1.60;;
54871;SDS011;43914;57.680;11.982;2022-09-29T15:39:05;5.17;;;2.00;;
54871;SDS011;43914;57.680;11.982;2022-09-29T15:41:46;4.95;;;1.40;;
54871;SDS011;43914;57.680;11.982;2022-09-29T15:44:16;5.80;;;1.60;;
54871;SDS011;43914;57.680;11.982;2022-09-29T15:46:50;5.62;;;1.60;;
54871;SDS011;43914;57.680;11.982;2022-09-29T15:49:19;4.05;;;1.45;;
54871;SDS011;43914;57.680;11.982;2022-09-29T15:52:03;4.75;;;1.40;;
54871;SDS011;43914;57.680;11.982;2022-09-29T15:54:37;5.72;;;1.50;;
54871;SDS011;43914;57.680;11.982;2022-09-29T15:57:04;6.05;;;1.80;;
54871;SDS011;43914;57.680;11.982;2022-09-29T15:59:53;5.05;;;1.70;;
54871;SDS011;43914;57.680;11.982;2022-09-29T16:02:21;4.33;;;1.42;;
54871;SDS011;43914;57.680;11.982;2022-09-29T16:05:09;3.58;;;1.40;;
54871;SDS011;43914;57.680;11.982;2022-09-29T16:07:52;4.47;;;1.50;;
54871;SDS011;43914;57.680;11.982;2022-09-29T16:10:26;4.15;;;1.30;;
54871;SDS011;43914;57.680;11.982;2022-09-29T16:13:02;3.70;;;1.40;;
54871;SDS011;43914;57.680;11.982;2022-09-29T16:15:36;5.10;;;1.37;;
54871;SDS011;43914;57.680;11.982;2022-09-29T16:18:10;4.00;;;1.40;;
54871;SDS011;43914;57.680;11.982;2022-09-29T16:20:56;4.65;;;1.40;;
54871;SDS011;43914;57.680;11.982;2022-09-29T16:23:25;5.15;;;1.67;;
54871;SDS011;43914;57.680;11.982;2022-09-29T16:26:08;4.72;;;1.52;;
54871;SDS011;43914;57.680;11.982;2022-09-29T16:31:32;5.55;;;1.62;;
54871;SDS011;43914;57.680;11.982;2022-09-29T16:34:00;5.20;;;1.65;;
54871;SDS011;43914;57.680;11.982;2022-09-29T16:39:05;4.45;;;1.50;;
54871;SDS011;43914;57.680;11.982;2022-09-29T16:41:31;4.65;;;1.50;;
54871;SDS011;43914;57.680;11.982;2022-09-29T16:44:03;5.78;;;1.50;;
54871;SDS011;43914;57.680;11.982;2022-09-29T16:46:44;5.85;;;1.72;;
54871;SDS011;43914;57.680;11.982;2022-09-29T16:54:45;5.22;;;1.40;;
54871;SDS011;43914;57.680;11.982;2022-09-29T16:59:58;3.85;;;1.27;;
54871;SDS011;43914;57.680;11.982;2022-09-29T17:02:24;4.72;;;1.50;;
54871;SDS011;43914;57.680;11.982;2022-09-29T17:04:52;6.72;;;1.70;;
54871;SDS011;43914;57.680;11.982;2022-09-29T17:07:21;7.08;;;1.62;;
54871;SDS011;43914;57.680;11.982;2022-09-29T17:09:51;4.72;;;1.60;;
54871;SDS011;43914;57.680;11.982;2022-09-29T17:12:21;4.92;;;1.40;;
54871;SDS011;43914;57.680;11.982;2022-09-29T17:14:48;4.17;;;1.50;;
54871;SDS011;43914;57.680;11.982;2022-09-29T17:17:24;5.00;;;1.75;;
54871;SDS011;43914;57.680;11.982;2022-09-29T17:19:49;5.03;;;1.75;;
54871;SDS011;43914;57.680;11.982;2022-09-29T17:22:28;5.00;;;1.60;;
54871;SDS011;43914;57.680;11.982;2022-09-29T17:24:58;4.95;;;1.60;;
54871;SDS011;43914;57.680;11.982;2022-09-29T17:27:24;5.90;;;1.50;;
54871;SDS011;43914;57.680;11.982;2022-09-29T17:30:10;5.78;;;1.55;;
54871;SDS011;43914;57.680;11.982;2022-09-29T17:32:41;5.83;;;1.50;;
54871;SDS011;43914;57.680;11.982;2022-09-29T17:35:09;5.20;;;1.57;;
54871;SDS011;43914;57.680;11.982;2022-09-29T17:37:37;5.60;;;1.90;;
54871;SDS011;43914;57.680;11.982;2022-09-29T17:42:51;4.45;;;1.67;;
54871;SDS011;43914;57.680;11.982;2022-09-29T17:45:19;5.75;;;1.60;;
54871;SDS011;43914;57.680;11.982;2022-09-29T17:47:46;5.62;;;1.70;;
54871;SDS011;43914;57.680;11.982;2022-09-29T17:52:48;5.67;;;1.65;;
54871;SDS011;43914;57.680;11.982;2022-09-29T17:55:14;4.85;;;1.65;;
54871;SDS011;43914;57.680;11.982;2022-09-29T17:57:41;5.17;;;1.47;;
54871;SDS011;43914;57.680;11.982;2022-09-29T18:00:18;5.53;;;1.65;;
54871;SDS011;43914;57.680;11.982;2022-09-29T18:02:48;4.47;;;1.60;;
54871;SDS011;43914;57.680;11.982;2022-09-29T18:05:21;5.37;;;1.52;;
54871;SDS011;43914;57.680;11.982;2022-09-29T18:07:47;5.87;;;1.70;;
54871;SDS011;43914;57.680;11.982;2022-09-29T18:10:16;5.10;;;1.45;;
54871;SDS011;43914;57.680;11.982;2022-09-29T18:13:03;5.70;;;1.40;;
54871;SDS011;43914;57.680;11.982;2022-09-29T18:15:31;5.60;;;1.60;;
54871;SDS011;43914;57.680;11.982;2022-09-29T18:18:00;6.58;;;1.80;;
54871;SDS011;43914;57.680;11.982;2022-09-29T18:20:29;4.65;;;1.60;;
54871;SDS011;43914;57.680;11.982;2022-09-29T18:22:58;4.87;;;1.70;;
54871;SDS011;43914;57.680;11.982;2022-09-29T18:25:29;4.60;;;1.50;;
54871;SDS011;43914;57.680;11.982;2022-09-29T18:27:54;6.00;;;1.67;;
54871;SDS011;43914;57.680;11.982;2022-09-29T18:30:29;5.17;;;1.42;;
54871;SDS011;43914;57.680;11.982;2022-09-29T18:32:59;5.30;;;1.70;;
54871;SDS011;43914;57.680;11.982;2022-09-29T18:35:31;4.60;;;1.60;;